Lihue — WTST — position and weather

sailwx.info

Track history (hours):
 
Tides and Currents Weather Stations Pressure Air Temp Water Temp Dewpoint Dewpoint Depression Visibility Wind Speed Wind Dir Waves Ship Positions

Lihue

Owner: MATSON NAVIGATION CO, Tacoma, WA. More information available from US FCC via Universal Licensing System and Coast Guard Vessel Documentation Center.

Last reported at 2017-Nov-27 18:49 UTC. Time now 2018-Feb-24 18:00 UTC.
Position N 37°47' W 122°23'.
Warning: this ship's position is months out of date.

Type: Cargo ship. MMSI: 368074000.

Date/timePositionNaut miles runAvg speedWind from/ knotsBaromVisibWave heightAir tempDewpointWater temp
2017-Nov-27 18:49N 37°47' W 122°23'0 0.0
2017-Nov-27 18:31N 37°47' W 122°23'0 0.0
2017-Nov-27 18:01N 37°47' W 122°23'0 0.0
2017-Nov-27 17:30N 37°47' W 122°23'0 0.0
2017-Nov-27 17:00N 37°47' W 122°23'0 0.0
2017-Nov-27 16:30N 37°47' W 122°23'0 0.0
2017-Nov-27 16:00N 37°47' W 122°23'0 0.1
2017-Nov-27 15:30N 37°47' W 122°23'3 6.2
2017-Nov-27 15:00N 37°49' W 122°26'612.9
2017-Nov-27 14:30N 37°47' W 122°34'511.0
2017-Nov-27 14:00N 37°44' W 122°40'4 8.1
2017-Nov-27 13:30N 37°40' W 122°40'510.3
2017-Nov-27 13:00N 37°35' W 122°40'511.0
2017-Nov-27 12:31N 37°30' W 122°39'611.2
2017-Nov-27 12:01N 37°24' W 122°39'711.4
2017-Nov-27 11:25N 37°17' W 122°39'511.0
2017-Nov-27 10:59N 37°13' W 122°38'510.9
2017-Nov-27 10:31N 37°07' W 122°37'710.9
2017-Nov-27 09:53N 37°01' W 122°35'10612.5
2017-Nov-27 01:24N 35°27' W 121°35'717.7
2017-Nov-27 01:00N 35°20' W 121°31'917.4
2017-Nov-27 00:30N 35°13' W 121°25'917.9
2017-Nov-27 00:00N 35°05' W 121°20'917.5
2017-Nov-26 23:30N 34°57' W 121°15'917.3
2017-Nov-26 23:00N 34°50' W 121°09'917.0
2017-Nov-26 22:30N 34°43' W 121°03'816.7
2017-Nov-26 22:00N 34°36' W 120°58'816.7
2017-Nov-26 21:30N 34°29' W 120°53'815.8
2017-Nov-26 21:00N 34°25' W 120°45'917.2
2017-Nov-26 20:30N 34°22' W 120°35'917.6
2017-Nov-26 20:00N 34°20' W 120°25'917.6
2017-Nov-26 19:30N 34°18' W 120°14'917.2
2017-Nov-26 19:00N 34°16' W 120°04'917.0
2017-Nov-26 18:30N 34°13' W 119°55'816.8
2017-Nov-26 18:00N 34°11' W 119°45'917.0
2017-Nov-26 17:30N 34°09' W 119°35'816.8
2017-Nov-26 17:00N 34°07' W 119°25'816.8
2017-Nov-26 16:30N 34°04' W 119°15'816.9
2017-Nov-26 16:00N 34°00' W 119°06'914.1
2017-Nov-26 15:22N 33°56' W 118°57'411.2
2017-Nov-26 15:00N 33°54' W 118°53'611.1
2017-Nov-26 14:28N 33°51' W 118°47'511.3
2017-Nov-26 14:01N 33°48' W 118°41'611.1
2017-Nov-26 13:30N 33°45' W 118°35'611.2
2017-Nov-26 12:59N 33°42' W 118°29'511.0
2017-Nov-26 12:30N 33°40' W 118°24'510.0
2017-Nov-26 12:00N 33°38' W 118°18'610.1
2017-Nov-26 11:27N 33°40' W 118°12'4 8.4
2017-Nov-26 11:00N 33°44' W 118°12'2 5.0
2017-Nov-26 10:31N 33°46' W 118°13'0 0.2
2017-Nov-26 10:00N 33°46' W 118°13'0 0.0
2017-Nov-26 09:31N 33°46' W 118°13'0 0.0
2017-Nov-26 09:00N 33°46' W 118°13'0 0.0
2017-Nov-26 08:30N 33°46' W 118°13'0 0.0
2017-Nov-26 07:59N 33°46' W 118°13'0 0.0
2017-Nov-26 07:30N 33°46' W 118°13'0 0.0
2017-Nov-26 07:00N 33°46' W 118°13'0 0.0
2017-Nov-26 06:26N 33°46' W 118°13'0 0.0
2017-Nov-26 05:43N 33°46' W 118°13'0 0.0
2017-Nov-26 05:24N 33°46' W 118°13'0 0.0
2017-Nov-26 05:00N 33°46' W 118°13'0 0.0
2017-Nov-26 04:30N 33°46' W 118°13'0 0.0
2017-Nov-26 04:00N 33°46' W 118°13'0 0.0
2017-Nov-26 03:30N 33°46' W 118°13'0 0.0
2017-Nov-26 03:01N 33°46' W 118°13'0 0.0
2017-Nov-26 02:30N 33°46' W 118°13'0 0.0
2017-Nov-26 02:00N 33°46' W 118°13'0 0.0
2017-Nov-26 01:30N 33°46' W 118°13'0 0.0
2017-Nov-26 01:00N 33°46' W 118°13'1 1.4
2017-Nov-26 00:17N 33°45' W 118°13'1 3.3
2017-Nov-26 00:00N 33°44' W 118°12'1 1.5
2017-Nov-25 23:30N 33°45' W 118°12'0 0.0
2017-Nov-25 22:55N 33°45' W 118°12'0 0.0
2017-Nov-25 22:26N 33°45' W 118°12'0 0.0
2017-Nov-25 21:56N 33°45' W 118°12'0 0.0
2017-Nov-25 21:20N 33°45' W 118°12'0 0.0
2017-Nov-25 20:56N 33°45' W 118°12'0 0.0
2017-Nov-25 20:27N 33°45' W 118°12'0 0.0
2017-Nov-25 19:51N 33°45' W 118°12'0 0.0
2017-Nov-25 19:22N 33°45' W 118°12'0 0.0
2017-Nov-25 18:58N 33°45' W 118°12'0 0.0
2017-Nov-25 12:29N 33°45' W 118°12'0 0.0
2017-Nov-25 11:59N 33°45' W 118°12'0 0.0
2017-Nov-25 11:00N 33°45' W 118°12'0 0.0
2017-Nov-25 09:37N 33°45' W 118°12'0 0.0
2017-Nov-25 09:10N 33°45' W 118°12'0 0.0
2017-Nov-25 08:41N 33°45' W 118°12'0 0.0
2017-Nov-25 08:23N 33°45' W 118°12'0 0.0
2017-Nov-25 07:53N 33°45' W 118°12'0 0.0
2017-Nov-25 07:00N 33°45' W 118°12'0 0.0
2017-Nov-25 06:30N 33°45' W 118°12'0 0.0
2017-Nov-25 06:00N 33°45' W 118°12'0 0.0
2017-Nov-25 05:25N 33°45' W 118°12'0 0.0
2017-Nov-25 04:55N 33°45' W 118°12'0 0.0
2017-Nov-25 04:25N 33°45' W 118°12'0 0.0
2017-Nov-25 03:56N 33°45' W 118°12'0 0.1
2017-Nov-25 03:26N 33°45' W 118°12'1 3.1
2017-Nov-25 03:00N 33°45' W 118°13'0 0.0
2017-Nov-24 15:19N 33°45' W 118°13'3 5.7
2017-Nov-24 14:51N 33°43' W 118°11'3 8.4
2017-Nov-24 14:30N 33°40' W 118°11'3 7.1
2017-Nov-24 14:01N 33°37' W 118°12'3 5.2
2017-Nov-24 13:30N 33°36' W 118°15'3 5.1
2017-Nov-24 13:00N 33°36' W 118°18'3 5.2
2017-Nov-24 12:30N 33°36' W 118°21'3 5.3
2017-Nov-24 11:58N 33°38' W 118°24'2 5.0
2017-Nov-24 11:29N 33°39' W 118°27'3 5.1
2017-Nov-24 10:59N 33°40' W 118°29'2 5.1
2017-Nov-24 10:31N 33°41' W 118°32'3 5.5
2017-Nov-24 10:00N 33°42' W 118°35'4 8.6
2017-Nov-24 09:30N 33°45' W 118°39'5 9.9
2017-Nov-24 09:01N 33°47' W 118°44'5 9.8
2017-Nov-24 08:31N 33°50' W 118°50'5 9.8
2017-Nov-24 08:01N 33°52' W 118°55'5 9.2
2017-Nov-24 07:31N 33°54' W 118°60'5 9.0
2017-Nov-24 07:01N 33°56' W 119°04'5 9.1
2017-Nov-24 06:30N 33°59' W 119°09'5 8.9
2017-Nov-24 05:58N 34°01' W 119°14'4 9.2
2017-Nov-24 05:30N 34°02' W 119°19'5 9.3
2017-Nov-24 04:58N 34°04' W 119°25'5 9.8
2017-Nov-24 04:30N 34°05' W 119°30'510.2
2017-Nov-24 03:59N 34°06' W 119°36'510.2
2017-Nov-24 03:30N 34°08' W 119°42'510.9
2017-Nov-24 03:00N 34°09' W 119°48'611.6
2017-Nov-24 02:30N 34°11' W 119°55'713.5
2017-Nov-24 01:58N 34°13' W 120°03'1020.0
2017-Nov-24 01:29N 34°16' W 120°14'1020.7
2017-Nov-24 01:00N 34°18' W 120°26'1020.2
2017-Nov-24 00:30N 34°21' W 120°38'1120.8
2017-Nov-24 00:00N 34°24' W 120°50'1020.6
2017-Nov-23 23:31N 34°32' W 120°57'1121.9
2017-Nov-23 23:01N 34°42' W 121°04'1121.4
2017-Nov-23 22:30N 34°51' W 121°11'1121.3
2017-Nov-23 22:01N 34°60' W 121°17'1121.2
2017-Nov-23 21:30N 35°10' W 121°23'1121.2
2017-Nov-23 21:01N 35°18' W 121°30'1121.2
2017-Nov-23 20:31N 35°28' W 121°36'1121.2
2017-Nov-23 20:01N 35°37' W 121°42'1121.2
2017-Nov-23 19:30N 35°46' W 121°49'1021.0
2017-Nov-23 19:01N 35°55' W 121°55'1121.0
2017-Nov-23 18:31N 36°04' W 122°02'1121.1
2017-Nov-23 18:00N 36°13' W 122°09'1121.5
2017-Nov-23 17:31N 36°22' W 122°16'1121.4
2017-Nov-23 17:01N 36°32' W 122°22'1121.4
2017-Nov-23 16:31N 36°41' W 122°29'1121.4
2017-Nov-23 16:00N 36°51' W 122°34'1221.5
2017-Nov-23 15:27N 37°03' W 122°38'921.3
2017-Nov-23 15:00N 37°12' W 122°41'1021.0
2017-Nov-23 14:31N 37°22' W 122°44'1121.1
2017-Nov-23 14:01N 37°32' W 122°44'1020.4
2017-Nov-23 13:31N 37°42' W 122°42'612.8
2017-Nov-23 13:00N 37°47' W 122°36'816.0
2017-Nov-23 12:30N 37°50' W 122°27'612.2
2017-Nov-23 12:00N 37°48' W 122°20'1 2.7
2017-Nov-23 11:30N 37°48' W 122°18'0 0.0
2017-Nov-23 10:58N 37°48' W 122°18'0 0.0
2017-Nov-23 10:25N 37°48' W 122°18'0 0.0
2017-Nov-23 09:58N 37°48' W 122°18'0 0.0
2017-Nov-23 09:29N 37°48' W 122°18'0 0.0
2017-Nov-23 08:59N 37°48' W 122°18'0 0.0
2017-Nov-23 08:29N 37°48' W 122°18'0 0.0
2017-Nov-23 08:00N 37°48' W 122°18'0 0.0
2017-Nov-23 07:30N 37°48' W 122°18'0 0.0
2017-Nov-23 07:00N 37°48' W 122°18'0 0.0
2017-Nov-23 06:28N 37°48' W 122°18'0 0.0
2017-Nov-23 05:58N 37°48' W 122°18'0 0.0
2017-Nov-23 05:28N 37°48' W 122°18'0 0.0
2017-Nov-23 04:59N 37°48' W 122°18'0 0.0
2017-Nov-23 04:29N 37°48' W 122°18'0 0.0
2017-Nov-23 03:59N 37°48' W 122°18'0 0.0
2017-Nov-23 03:30N 37°48' W 122°18'0 0.0
2017-Nov-23 03:00N 37°48' W 122°18'0 0.0
2017-Nov-23 02:30N 37°48' W 122°18'0 0.0
2017-Nov-23 01:58N 37°48' W 122°18'0 0.0
2017-Nov-23 01:28N 37°48' W 122°18'0 0.0
2017-Nov-23 00:58N 37°48' W 122°18'0 0.0
2017-Nov-23 00:26N 37°48' W 122°18'0 0.0
2017-Nov-22 23:59N 37°48' W 122°18'0 0.0
2017-Nov-22 23:29N 37°48' W 122°18'0 0.0
2017-Nov-22 23:00N 37°48' W 122°18'0 0.0
2017-Nov-22 22:30N 37°48' W 122°18'0 0.0
2017-Nov-22 22:00N 37°48' W 122°18'0 0.0
2017-Nov-22 21:28N 37°48' W 122°18'0 0.0
2017-Nov-22 20:58N 37°48' W 122°18'0 0.0
2017-Nov-22 20:28N 37°48' W 122°18'0 0.0
2017-Nov-22 19:59N 37°48' W 122°18'0 0.0
2017-Nov-22 19:29N 37°48' W 122°18'  
Track history (hours):
 
Tides and Currents Weather Stations Pressure Air Temp Water Temp Dewpoint Dewpoint Depression Visibility Wind Speed Wind Dir Waves Ship Positions

Lihue

Owner: MATSON NAVIGATION CO, Tacoma, WA. More information available from US FCC via Universal Licensing System and Coast Guard Vessel Documentation Center.

Last reported at 2017-Nov-27 18:49 UTC. Time now 2018-Feb-24 18:00 UTC.
Position N 37°47' W 122°23'.
Warning: this ship's position is months out of date.

Type: Cargo ship. MMSI: 368074000.

Date/timePositionNaut miles runAvg speedWind from/ knotsBaromVisibWave heightAir tempDewpointWater temp
2017-Nov-27 18:49N 37°47' W 122°23'0 0.0
2017-Nov-27 18:31N 37°47' W 122°23'0 0.0
2017-Nov-27 18:01N 37°47' W 122°23'0 0.0
2017-Nov-27 17:30N 37°47' W 122°23'0 0.0
2017-Nov-27 17:00N 37°47' W 122°23'0 0.0
2017-Nov-27 16:30N 37°47' W 122°23'0 0.0
2017-Nov-27 16:00N 37°47' W 122°23'0 0.1
2017-Nov-27 15:30N 37°47' W 122°23'3 6.2
2017-Nov-27 15:00N 37°49' W 122°26'612.9
2017-Nov-27 14:30N 37°47' W 122°34'511.0
2017-Nov-27 14:00N 37°44' W 122°40'4 8.1
2017-Nov-27 13:30N 37°40' W 122°40'510.3
2017-Nov-27 13:00N 37°35' W 122°40'511.0
2017-Nov-27 12:31N 37°30' W 122°39'611.2
2017-Nov-27 12:01N 37°24' W 122°39'711.4
2017-Nov-27 11:25N 37°17' W 122°39'511.0
2017-Nov-27 10:59N 37°13' W 122°38'510.9
2017-Nov-27 10:31N 37°07' W 122°37'710.9
2017-Nov-27 09:53N 37°01' W 122°35'10612.5
2017-Nov-27 01:24N 35°27' W 121°35'717.7
2017-Nov-27 01:00N 35°20' W 121°31'917.4
2017-Nov-27 00:30N 35°13' W 121°25'917.9
2017-Nov-27 00:00N 35°05' W 121°20'917.5
2017-Nov-26 23:30N 34°57' W 121°15'917.3
2017-Nov-26 23:00N 34°50' W 121°09'917.0
2017-Nov-26 22:30N 34°43' W 121°03'816.7
2017-Nov-26 22:00N 34°36' W 120°58'816.7
2017-Nov-26 21:30N 34°29' W 120°53'815.8
2017-Nov-26 21:00N 34°25' W 120°45'917.2
2017-Nov-26 20:30N 34°22' W 120°35'917.6
2017-Nov-26 20:00N 34°20' W 120°25'917.6
2017-Nov-26 19:30N 34°18' W 120°14'917.2
2017-Nov-26 19:00N 34°16' W 120°04'917.0
2017-Nov-26 18:30N 34°13' W 119°55'816.8
2017-Nov-26 18:00N 34°11' W 119°45'917.0
2017-Nov-26 17:30N 34°09' W 119°35'816.8
2017-Nov-26 17:00N 34°07' W 119°25'816.8
2017-Nov-26 16:30N 34°04' W 119°15'816.9
2017-Nov-26 16:00N 34°00' W 119°06'914.1
2017-Nov-26 15:22N 33°56' W 118°57'411.2
2017-Nov-26 15:00N 33°54' W 118°53'611.1
2017-Nov-26 14:28N 33°51' W 118°47'511.3
2017-Nov-26 14:01N 33°48' W 118°41'611.1
2017-Nov-26 13:30N 33°45' W 118°35'611.2
2017-Nov-26 12:59N 33°42' W 118°29'511.0
2017-Nov-26 12:30N 33°40' W 118°24'510.0
2017-Nov-26 12:00N 33°38' W 118°18'610.1
2017-Nov-26 11:27N 33°40' W 118°12'4 8.4
2017-Nov-26 11:00N 33°44' W 118°12'2 5.0
2017-Nov-26 10:31N 33°46' W 118°13'0 0.2
2017-Nov-26 10:00N 33°46' W 118°13'0 0.0
2017-Nov-26 09:31N 33°46' W 118°13'0 0.0
2017-Nov-26 09:00N 33°46' W 118°13'0 0.0
2017-Nov-26 08:30N 33°46' W 118°13'0 0.0
2017-Nov-26 07:59N 33°46' W 118°13'0 0.0
2017-Nov-26 07:30N 33°46' W 118°13'0 0.0
2017-Nov-26 07:00N 33°46' W 118°13'0 0.0
2017-Nov-26 06:26N 33°46' W 118°13'0 0.0
2017-Nov-26 05:43N 33°46' W 118°13'0 0.0
2017-Nov-26 05:24N 33°46' W 118°13'0 0.0
2017-Nov-26 05:00N 33°46' W 118°13'0 0.0
2017-Nov-26 04:30N 33°46' W 118°13'0 0.0
2017-Nov-26 04:00N 33°46' W 118°13'0 0.0
2017-Nov-26 03:30N 33°46' W 118°13'0 0.0
2017-Nov-26 03:01N 33°46' W 118°13'0 0.0
2017-Nov-26 02:30N 33°46' W 118°13'0 0.0
2017-Nov-26 02:00N 33°46' W 118°13'0 0.0
2017-Nov-26 01:30N 33°46' W 118°13'0 0.0
2017-Nov-26 01:00N 33°46' W 118°13'1 1.4
2017-Nov-26 00:17N 33°45' W 118°13'1 3.3
2017-Nov-26 00:00N 33°44' W 118°12'1 1.5
2017-Nov-25 23:30N 33°45' W 118°12'0 0.0
2017-Nov-25 22:55N 33°45' W 118°12'0 0.0
2017-Nov-25 22:26N 33°45' W 118°12'0 0.0
2017-Nov-25 21:56N 33°45' W 118°12'0 0.0
2017-Nov-25 21:20N 33°45' W 118°12'0 0.0
2017-Nov-25 20:56N 33°45' W 118°12'0 0.0
2017-Nov-25 20:27N 33°45' W 118°12'0 0.0
2017-Nov-25 19:51N 33°45' W 118°12'0 0.0
2017-Nov-25 19:22N 33°45' W 118°12'0 0.0
2017-Nov-25 18:58N 33°45' W 118°12'0 0.0
2017-Nov-25 12:29N 33°45' W 118°12'0 0.0
2017-Nov-25 11:59N 33°45' W 118°12'0 0.0
2017-Nov-25 11:00N 33°45' W 118°12'0 0.0
2017-Nov-25 09:37N 33°45' W 118°12'0 0.0
2017-Nov-25 09:10N 33°45' W 118°12'0 0.0
2017-Nov-25 08:41N 33°45' W 118°12'0 0.0
2017-Nov-25 08:23N 33°45' W 118°12'0 0.0
2017-Nov-25 07:53N 33°45' W 118°12'0 0.0
2017-Nov-25 07:00N 33°45' W 118°12'0 0.0
2017-Nov-25 06:30N 33°45' W 118°12'0 0.0
2017-Nov-25 06:00N 33°45' W 118°12'0 0.0
2017-Nov-25 05:25N 33°45' W 118°12'0 0.0
2017-Nov-25 04:55N 33°45' W 118°12'0 0.0
2017-Nov-25 04:25N 33°45' W 118°12'0 0.0
2017-Nov-25 03:56N 33°45' W 118°12'0 0.1
2017-Nov-25 03:26N 33°45' W 118°12'1 3.1
2017-Nov-25 03:00N 33°45' W 118°13'0 0.0
2017-Nov-24 15:19N 33°45' W 118°13'3 5.7
2017-Nov-24 14:51N 33°43' W 118°11'3 8.4
2017-Nov-24 14:30N 33°40' W 118°11'3 7.1
2017-Nov-24 14:01N 33°37' W 118°12'3 5.2
2017-Nov-24 13:30N 33°36' W 118°15'3 5.1
2017-Nov-24 13:00N 33°36' W 118°18'3 5.2
2017-Nov-24 12:30N 33°36' W 118°21'3 5.3
2017-Nov-24 11:58N 33°38' W 118°24'2 5.0
2017-Nov-24 11:29N 33°39' W 118°27'3 5.1
2017-Nov-24 10:59N 33°40' W 118°29'2 5.1
2017-Nov-24 10:31N 33°41' W 118°32'3 5.5
2017-Nov-24 10:00N 33°42' W 118°35'4 8.6
2017-Nov-24 09:30N 33°45' W 118°39'5 9.9
2017-Nov-24 09:01N 33°47' W 118°44'5 9.8
2017-Nov-24 08:31N 33°50' W 118°50'5 9.8
2017-Nov-24 08:01N 33°52' W 118°55'5 9.2
2017-Nov-24 07:31N 33°54' W 118°60'5 9.0
2017-Nov-24 07:01N 33°56' W 119°04'5 9.1
2017-Nov-24 06:30N 33°59' W 119°09'5 8.9
2017-Nov-24 05:58N 34°01' W 119°14'4 9.2
2017-Nov-24 05:30N 34°02' W 119°19'5 9.3
2017-Nov-24 04:58N 34°04' W 119°25'5 9.8
2017-Nov-24 04:30N 34°05' W 119°30'510.2
2017-Nov-24 03:59N 34°06' W 119°36'510.2
2017-Nov-24 03:30N 34°08' W 119°42'510.9
2017-Nov-24 03:00N 34°09' W 119°48'611.6
2017-Nov-24 02:30N 34°11' W 119°55'713.5
2017-Nov-24 01:58N 34°13' W 120°03'1020.0
2017-Nov-24 01:29N 34°16' W 120°14'1020.7
2017-Nov-24 01:00N 34°18' W 120°26'1020.2
2017-Nov-24 00:30N 34°21' W 120°38'1120.8
2017-Nov-24 00:00N 34°24' W 120°50'1020.6
2017-Nov-23 23:31N 34°32' W 120°57'1121.9
2017-Nov-23 23:01N 34°42' W 121°04'1121.4
2017-Nov-23 22:30N 34°51' W 121°11'1121.3
2017-Nov-23 22:01N 34°60' W 121°17'1121.2
2017-Nov-23 21:30N 35°10' W 121°23'1121.2
2017-Nov-23 21:01N 35°18' W 121°30'1121.2
2017-Nov-23 20:31N 35°28' W 121°36'1121.2
2017-Nov-23 20:01N 35°37' W 121°42'1121.2
2017-Nov-23 19:30N 35°46' W 121°49'1021.0
2017-Nov-23 19:01N 35°55' W 121°55'1121.0
2017-Nov-23 18:31N 36°04' W 122°02'1121.1
2017-Nov-23 18:00N 36°13' W 122°09'1121.5
2017-Nov-23 17:31N 36°22' W 122°16'1121.4
2017-Nov-23 17:01N 36°32' W 122°22'1121.4
2017-Nov-23 16:31N 36°41' W 122°29'1121.4
2017-Nov-23 16:00N 36°51' W 122°34'1221.5
2017-Nov-23 15:27N 37°03' W 122°38'921.3
2017-Nov-23 15:00N 37°12' W 122°41'1021.0
2017-Nov-23 14:31N 37°22' W 122°44'1121.1
2017-Nov-23 14:01N 37°32' W 122°44'1020.4
2017-Nov-23 13:31N 37°42' W 122°42'612.8
2017-Nov-23 13:00N 37°47' W 122°36'816.0
2017-Nov-23 12:30N 37°50' W 122°27'612.2
2017-Nov-23 12:00N 37°48' W 122°20'1 2.7
2017-Nov-23 11:30N 37°48' W 122°18'0 0.0
2017-Nov-23 10:58N 37°48' W 122°18'0 0.0
2017-Nov-23 10:25N 37°48' W 122°18'0 0.0
2017-Nov-23 09:58N 37°48' W 122°18'0 0.0
2017-Nov-23 09:29N 37°48' W 122°18'0 0.0
2017-Nov-23 08:59N 37°48' W 122°18'0 0.0
2017-Nov-23 08:29N 37°48' W 122°18'0 0.0
2017-Nov-23 08:00N 37°48' W 122°18'0 0.0
2017-Nov-23 07:30N 37°48' W 122°18'0 0.0
2017-Nov-23 07:00N 37°48' W 122°18'0 0.0
2017-Nov-23 06:28N 37°48' W 122°18'0 0.0
2017-Nov-23 05:58N 37°48' W 122°18'0 0.0
2017-Nov-23 05:28N 37°48' W 122°18'0 0.0
2017-Nov-23 04:59N 37°48' W 122°18'0 0.0
2017-Nov-23 04:29N 37°48' W 122°18'0 0.0
2017-Nov-23 03:59N 37°48' W 122°18'0 0.0
2017-Nov-23 03:30N 37°48' W 122°18'0 0.0
2017-Nov-23 03:00N 37°48' W 122°18'0 0.0
2017-Nov-23 02:30N 37°48' W 122°18'0 0.0
2017-Nov-23 01:58N 37°48' W 122°18'0 0.0
2017-Nov-23 01:28N 37°48' W 122°18'0 0.0
2017-Nov-23 00:58N 37°48' W 122°18'0 0.0
2017-Nov-23 00:26N 37°48' W 122°18'0 0.0
2017-Nov-22 23:59N 37°48' W 122°18'0 0.0
2017-Nov-22 23:29N 37°48' W 122°18'0 0.0
2017-Nov-22 23:00N 37°48' W 122°18'0 0.0
2017-Nov-22 22:30N 37°48' W 122°18'0 0.0
2017-Nov-22 22:00N 37°48' W 122°18'0 0.0
2017-Nov-22 21:28N 37°48' W 122°18'0 0.0
2017-Nov-22 20:58N 37°48' W 122°18'0 0.0
2017-Nov-22 20:28N 37°48' W 122°18'0 0.0
2017-Nov-22 19:59N 37°48' W 122°18'0 0.0
2017-Nov-22 19:29N 37°48' W 122°18'  

Dump ship's entire track history